createdAt,value
2023-04-28T00:00:54.684Z,5.90
2023-04-28T00:03:23.070Z,11.70
2023-04-28T00:05:53.398Z,8.90
2023-04-28T00:08:23.729Z,8.30
2023-04-28T00:10:51.911Z,7.60
2023-04-28T00:13:20.194Z,9.80
2023-04-28T00:15:50.490Z,8.80
2023-04-28T00:18:20.438Z,9.90
2023-04-28T00:20:49.024Z,8.80
2023-04-28T00:23:17.518Z,9.40
2023-04-28T00:25:52.222Z,6.50
2023-04-28T00:28:32.878Z,10.50
2023-04-28T00:31:03.237Z,6.70
2023-04-28T00:33:31.522Z,8.30
2023-04-28T00:36:01.424Z,8.50
2023-04-28T00:38:30.041Z,10.90
2023-04-28T00:40:58.797Z,10.40
2023-04-28T00:43:27.414Z,9.10
2023-04-28T00:45:56.572Z,9.30
2023-04-28T00:48:25.307Z,9.90
2023-04-28T00:50:53.689Z,19.60
2023-04-28T00:53:22.281Z,7.10
2023-04-28T00:55:53.360Z,9.90
2023-04-28T00:58:21.964Z,6.40
2023-04-28T01:00:50.310Z,6.50
2023-04-28T01:03:19.079Z,6.10
2023-04-28T01:05:48.295Z,21.10
2023-04-28T01:08:16.777Z,10.80
2023-04-28T01:10:45.501Z,7.10
2023-04-28T01:13:20.915Z,9.50
2023-04-28T01:15:50.634Z,9.20
2023-04-28T01:18:19.116Z,6.60
2023-04-28T01:20:47.813Z,4.80
2023-04-28T01:23:17.470Z,8.20
2023-04-28T01:25:46.112Z,7.40
2023-04-28T01:28:14.433Z,8.80
2023-04-28T01:30:43.806Z,5.70
2023-04-28T01:33:12.186Z,9.10
2023-04-28T01:35:40.482Z,7.90
2023-04-28T01:38:11.616Z,11.50
2023-04-28T01:40:40.002Z,9.60
2023-04-28T01:43:08.293Z,7.30
2023-04-28T01:45:36.895Z,11.20
2023-04-28T01:48:05.942Z,10.50
2023-04-28T01:50:34.360Z,4.70
2023-04-28T01:53:04.795Z,8.20
2023-04-28T01:55:33.793Z,7.80
2023-04-28T01:58:02.485Z,9.10
2023-04-28T02:00:31.484Z,10.80
2023-04-28T02:02:59.977Z,7.40
2023-04-28T02:05:28.469Z,14.00
2023-04-28T02:07:56.946Z,11.30
2023-04-28T02:10:25.229Z,8.00
2023-04-28T02:12:53.507Z,12.80
2023-04-28T02:15:21.992Z,5.50
2023-04-28T02:17:50.733Z,5.60
2023-04-28T02:20:20.201Z,9.60
2023-04-28T02:22:50.216Z,6.90
2023-04-28T02:25:18.701Z,13.80
2023-04-28T02:27:47.290Z,9.80
2023-04-28T02:30:16.413Z,5.60
2023-04-28T02:32:45.048Z,11.00
2023-04-28T02:35:13.363Z,11.80
2023-04-28T02:37:41.747Z,7.30
2023-04-28T02:40:11.006Z,10.00
2023-04-28T02:42:39.251Z,9.80
2023-04-28T02:45:08.481Z,8.40
2023-04-28T02:47:37.267Z,10.00
2023-04-28T02:50:06.710Z,7.40
2023-04-28T02:52:35.023Z,9.20
2023-04-28T02:55:04.949Z,8.80
2023-04-28T02:57:33.641Z,8.80
2023-04-28T03:00:02.093Z,10.10
2023-04-28T03:02:34.588Z,12.80
2023-04-28T03:05:03.243Z,7.00
2023-04-28T03:07:31.785Z,10.40
2023-04-28T03:10:00.360Z,7.20
2023-04-28T03:12:28.755Z,14.40
2023-04-28T03:14:57.244Z,10.60
2023-04-28T03:17:25.760Z,13.30
2023-04-28T03:19:54.110Z,7.20
2023-04-28T03:22:22.705Z,10.70
2023-04-28T03:24:50.979Z,12.00
2023-04-28T03:27:19.926Z,9.20
2023-04-28T03:29:48.747Z,11.40
2023-04-28T03:32:17.078Z,9.40
2023-04-28T03:34:45.542Z,8.50
2023-04-28T03:37:14.233Z,12.30
2023-04-28T03:39:42.617Z,9.60
2023-04-28T03:42:11.105Z,11.90
2023-04-28T03:44:39.594Z,7.60
2023-04-28T03:47:08.660Z,12.30
2023-04-28T03:49:38.000Z,9.10
2023-04-28T03:52:06.697Z,7.10
2023-04-28T03:54:35.888Z,8.30
2023-04-28T03:57:04.701Z,9.80
2023-04-28T03:59:34.395Z,8.90
2023-04-28T04:02:02.933Z,13.10
2023-04-28T04:04:31.669Z,6.60
2023-04-28T04:07:01.109Z,18.80
2023-04-28T04:09:30.703Z,10.30
2023-04-28T04:11:59.288Z,10.80
2023-04-28T04:14:27.688Z,8.80
2023-04-28T04:16:56.168Z,13.30
2023-04-28T04:19:26.665Z,11.70
2023-04-28T04:21:56.858Z,7.40
2023-04-28T04:24:25.632Z,6.40
2023-04-28T04:26:54.415Z,9.50
2023-04-28T04:29:40.702Z,7.10
2023-04-28T04:32:13.789Z,12.70
2023-04-28T04:34:43.104Z,7.20
2023-04-28T04:37:12.817Z,14.80
2023-04-28T04:39:47.245Z,13.80
2023-04-28T04:42:24.890Z,7.40
2023-04-28T04:45:31.287Z,15.70
2023-04-28T04:47:59.974Z,12.00
2023-04-28T04:50:28.766Z,12.60
2023-04-28T04:52:58.506Z,14.70
2023-04-28T04:55:27.687Z,13.20
2023-04-28T04:57:56.479Z,10.30
2023-04-28T05:00:45.136Z,9.20
2023-04-28T05:03:14.760Z,13.10
2023-04-28T05:05:46.365Z,7.00
2023-04-28T05:08:30.133Z,7.90
2023-04-28T05:10:59.258Z,16.00
2023-04-28T05:13:27.615Z,11.00
2023-04-28T05:16:00.775Z,10.10
2023-04-28T05:18:37.280Z,4.70
2023-04-28T05:21:06.485Z,8.40
2023-04-28T05:23:37.944Z,6.80
2023-04-28T05:26:07.763Z,5.70
2023-04-28T05:28:36.553Z,10.10
2023-04-28T05:31:06.656Z,8.60
2023-04-28T05:33:35.142Z,14.60
2023-04-28T05:36:03.755Z,9.30
2023-04-28T05:38:34.002Z,11.50
2023-04-28T05:41:02.884Z,7.00
2023-04-28T05:43:34.240Z,16.70
2023-04-28T05:46:30.703Z,11.60
2023-04-28T05:49:02.822Z,8.80
2023-04-28T05:51:35.099Z,9.90
2023-04-28T05:54:03.910Z,6.30
2023-04-28T05:56:34.218Z,8.80
2023-04-28T05:59:05.434Z,14.30
2023-04-28T06:01:33.864Z,6.00
2023-04-28T06:04:02.502Z,10.50
2023-04-28T06:06:32.460Z,16.40
2023-04-28T06:09:02.180Z,7.90
2023-04-28T06:11:30.690Z,12.00
2023-04-28T06:13:59.151Z,12.50
2023-04-28T06:16:29.250Z,15.40
2023-04-28T06:18:58.837Z,11.90
2023-04-28T06:21:28.929Z,13.00
2023-04-28T06:24:02.233Z,8.50
2023-04-28T06:26:31.534Z,10.20
2023-04-28T06:28:59.653Z,11.10
2023-04-28T06:31:28.408Z,7.00
2023-04-28T06:33:57.177Z,7.90
2023-04-28T06:36:25.763Z,41.60
2023-04-28T06:38:54.691Z,6.10
2023-04-28T06:41:23.061Z,4.80
2023-04-28T06:43:53.597Z,8.70
2023-04-28T06:46:27.452Z,11.00
2023-04-28T06:48:58.735Z,6.00
2023-04-28T06:51:29.061Z,5.90
2023-04-28T06:53:57.561Z,6.60
2023-04-28T06:56:26.044Z,7.50
2023-04-28T06:58:57.523Z,5.50
2023-04-28T07:01:26.116Z,6.00
2023-04-28T07:03:54.971Z,5.90
2023-04-28T07:06:23.675Z,6.20
2023-04-28T07:08:52.470Z,5.90
2023-04-28T07:11:20.875Z,6.10
2023-04-28T07:13:51.659Z,5.40
2023-04-28T07:16:21.696Z,6.70
2023-04-28T07:18:50.410Z,8.20
2023-04-28T07:21:18.792Z,10.20
2023-04-28T07:23:47.069Z,7.00
2023-04-28T07:26:16.533Z,6.40
2023-04-28T07:28:45.304Z,6.80
2023-04-28T07:31:14.069Z,9.20
2023-04-28T07:33:42.670Z,15.00
2023-04-28T07:36:11.256Z,5.50
2023-04-28T07:38:39.737Z,5.30
2023-04-28T07:41:10.046Z,6.50
2023-04-28T07:43:41.106Z,6.20
2023-04-28T07:46:18.755Z,7.70
2023-04-28T07:48:47.213Z,9.80
2023-04-28T07:51:15.686Z,3.90
2023-04-28T07:53:44.062Z,8.50
2023-04-28T07:56:13.256Z,7.00
2023-04-28T07:58:41.643Z,7.50
2023-04-28T08:01:10.134Z,9.00
2023-04-28T08:03:38.766Z,6.10
2023-04-28T08:06:07.903Z,8.30
2023-04-28T08:08:36.261Z,11.60
2023-04-28T08:11:05.222Z,10.20
2023-04-28T08:13:33.891Z,10.10
2023-04-28T08:16:02.216Z,6.30
2023-04-28T08:18:30.694Z,5.00
2023-04-28T08:20:58.943Z,8.70
2023-04-28T08:23:28.559Z,7.40
2023-04-28T08:25:56.950Z,4.40
2023-04-28T08:28:25.635Z,9.40
2023-04-28T08:30:55.803Z,7.20
2023-04-28T08:33:24.958Z,10.10
2023-04-28T08:35:53.650Z,8.90
2023-04-28T08:38:24.282Z,8.70
2023-04-28T08:40:52.880Z,6.50
2023-04-28T08:43:21.911Z,8.00
2023-04-28T08:45:50.578Z,6.50
2023-04-28T08:48:21.270Z,8.20
2023-04-28T08:50:52.048Z,9.30
2023-04-28T08:53:23.819Z,4.30
2023-04-28T08:55:56.733Z,6.30
2023-04-28T08:58:26.623Z,7.50
2023-04-28T09:00:55.003Z,8.40
2023-04-28T09:03:23.571Z,3.70
2023-04-28T09:05:51.973Z,8.60
2023-04-28T09:08:20.790Z,9.50
2023-04-28T09:10:49.048Z,6.80
2023-04-28T09:13:26.857Z,5.20
2023-04-28T09:16:08.339Z,5.70
2023-04-28T09:18:57.543Z,6.30
2023-04-28T09:21:25.767Z,4.90
2023-04-28T09:23:54.157Z,6.50
2023-04-28T09:26:22.432Z,9.30
2023-04-28T09:28:51.032Z,4.00
2023-04-28T09:31:28.457Z,7.60
2023-04-28T09:33:58.437Z,10.60
2023-04-28T09:36:29.685Z,4.40
2023-04-28T09:39:01.720Z,5.60
2023-04-28T09:41:40.837Z,6.10
2023-04-28T09:44:21.933Z,5.60
2023-04-28T09:46:50.657Z,9.20
2023-04-28T09:49:19.344Z,5.40
2023-04-28T09:51:47.851Z,3.30
2023-04-28T09:54:16.808Z,21.40
2023-04-28T09:56:47.876Z,4.10
2023-04-28T09:59:16.364Z,8.20
2023-04-28T10:01:46.394Z,2.40
2023-04-28T10:04:15.455Z,3.40
2023-04-28T10:06:44.929Z,3.20
2023-04-28T10:09:14.342Z,9.00
2023-04-28T10:11:42.723Z,9.00
2023-04-28T10:14:12.142Z,5.50
2023-04-28T10:16:40.786Z,4.60
2023-04-28T10:19:09.884Z,7.60
2023-04-28T10:21:48.080Z,6.50
2023-04-28T10:24:30.074Z,8.20
2023-04-28T10:27:03.323Z,9.40
2023-04-28T10:29:33.726Z,3.70
2023-04-28T10:32:22.075Z,4.50
2023-04-28T10:34:50.850Z,4.40
2023-04-28T10:37:20.368Z,8.90
2023-04-28T10:40:26.960Z,4.70
2023-04-28T10:42:59.240Z,5.80
2023-04-28T10:45:50.428Z,2.90
2023-04-28T10:48:23.200Z,6.00
2023-04-28T10:51:07.018Z,4.10
2023-04-28T10:53:48.327Z,2.20
2023-04-28T10:56:27.841Z,3.50
2023-04-28T10:58:59.522Z,4.30
2023-04-28T11:01:30.860Z,4.20
2023-04-28T11:04:00.955Z,3.90
2023-04-28T11:06:40.793Z,3.60
2023-04-28T11:09:15.606Z,5.10
2023-04-28T11:12:07.913Z,7.30
2023-04-28T11:14:37.991Z,5.50
2023-04-28T11:17:08.701Z,3.60
2023-04-28T11:19:42.277Z,3.10
2023-04-28T11:22:17.826Z,18.70
2023-04-28T11:24:59.971Z,3.60
2023-04-28T11:27:30.453Z,10.80
2023-04-28T11:30:00.012Z,14.40
2023-04-28T11:32:33.365Z,5.40
2023-04-28T11:35:02.426Z,8.30
2023-04-28T11:37:31.334Z,14.90
2023-04-28T11:40:10.097Z,15.40
2023-04-28T11:42:48.148Z,3.50
2023-04-28T11:45:16.838Z,3.40
2023-04-28T11:47:45.436Z,4.40
2023-04-28T11:50:15.970Z,4.00
2023-04-28T11:52:53.514Z,4.50
2023-04-28T11:55:22.658Z,7.50
2023-04-28T11:58:19.884Z,3.30
2023-04-28T12:01:15.612Z,14.50
2023-04-28T12:03:48.274Z,6.60
2023-04-28T12:06:20.269Z,6.00
2023-04-28T12:08:49.475Z,7.40
2023-04-28T12:11:20.113Z,11.50
2023-04-28T12:14:08.032Z,5.60
2023-04-28T12:16:44.270Z,4.80
2023-04-28T12:19:13.271Z,4.10
2023-04-28T12:21:42.297Z,7.70
2023-04-28T12:24:18.251Z,9.40
2023-04-28T12:26:48.223Z,4.90
2023-04-28T12:29:36.454Z,4.60
2023-04-28T12:32:06.833Z,4.10
2023-04-28T12:34:36.655Z,3.50
2023-04-28T12:37:05.917Z,5.50
2023-04-28T12:39:39.459Z,7.90
2023-04-28T12:42:08.649Z,4.90
2023-04-28T12:44:38.132Z,8.20
2023-04-28T12:47:08.208Z,5.00
2023-04-28T12:49:36.696Z,6.60
2023-04-28T12:52:06.056Z,13.20
2023-04-28T12:54:34.308Z,7.20
2023-04-28T12:57:04.087Z,6.30
2023-04-28T12:59:32.884Z,3.80
2023-04-28T13:02:01.207Z,11.20
2023-04-28T13:04:31.554Z,5.60
2023-04-28T13:07:00.180Z,4.50
2023-04-28T13:09:28.848Z,3.50
2023-04-28T13:11:57.052Z,10.00
2023-04-28T13:14:27.044Z,8.10
2023-04-28T13:16:55.670Z,8.00
2023-04-28T13:19:24.766Z,9.40
2023-04-28T13:21:54.169Z,9.80
2023-04-28T13:24:23.174Z,7.30
2023-04-28T13:26:52.447Z,10.50
2023-04-28T13:29:21.014Z,6.70
2023-04-28T13:31:49.630Z,10.50
2023-04-28T13:34:19.220Z,4.20
2023-04-28T13:36:50.846Z,3.40
2023-04-28T13:39:20.544Z,4.70
2023-04-28T13:41:49.639Z,9.00
2023-04-28T13:44:18.139Z,7.10
2023-04-28T13:46:50.300Z,4.00
2023-04-28T13:49:24.016Z,9.70
2023-04-28T13:51:54.553Z,2.90
2023-04-28T13:54:23.224Z,5.40
2023-04-28T13:56:51.811Z,16.40
2023-04-28T13:59:25.889Z,13.80
2023-04-28T14:02:02.806Z,5.70
2023-04-28T14:04:31.382Z,9.30
2023-04-28T14:06:59.984Z,6.50
2023-04-28T14:09:28.376Z,5.30
2023-04-28T14:11:59.436Z,5.00
2023-04-28T14:14:27.692Z,13.40
2023-04-28T14:17:02.797Z,7.00
2023-04-28T14:19:45.747Z,5.00
2023-04-28T14:22:13.935Z,4.50
2023-04-28T14:24:43.452Z,7.40
2023-04-28T14:27:13.995Z,12.80
2023-04-28T14:29:43.189Z,4.40
2023-04-28T14:32:11.975Z,4.40
2023-04-28T14:34:40.463Z,7.50
2023-04-28T14:37:09.734Z,14.00
2023-04-28T14:39:40.195Z,11.00
2023-04-28T14:42:13.831Z,5.50
2023-04-28T14:44:47.140Z,6.20
2023-04-28T14:47:16.195Z,10.70
2023-04-28T14:49:44.633Z,3.60
2023-04-28T14:52:13.771Z,7.90
2023-04-28T14:54:42.188Z,3.60
2023-04-28T14:57:10.656Z,6.20
2023-04-28T14:59:38.955Z,3.20
2023-04-28T15:02:08.178Z,8.40
2023-04-28T15:04:39.141Z,7.40
2023-04-28T15:07:10.538Z,12.30
2023-04-28T15:09:39.231Z,4.20
2023-04-28T15:12:07.816Z,10.40
2023-04-28T15:14:36.819Z,9.80
2023-04-28T15:17:08.283Z,4.80
2023-04-28T15:19:37.062Z,7.40
2023-04-28T15:22:05.828Z,5.60
2023-04-28T15:24:34.240Z,8.20
2023-04-28T15:27:04.270Z,6.40
2023-04-28T15:29:33.168Z,8.10
2023-04-28T15:32:02.886Z,5.50
2023-04-28T15:34:31.257Z,8.90
2023-04-28T15:36:59.754Z,6.70
2023-04-28T15:39:28.682Z,5.20
2023-04-28T15:41:56.924Z,5.10
2023-04-28T15:44:25.128Z,6.30
2023-04-28T15:46:54.010Z,2.50
2023-04-28T15:49:23.304Z,9.20
2023-04-28T15:51:52.542Z,7.60
2023-04-28T15:54:21.108Z,6.20
2023-04-28T15:56:49.501Z,5.70
2023-04-28T15:59:19.214Z,11.20
2023-04-28T16:01:47.789Z,7.90
2023-04-28T16:04:16.353Z,11.60
2023-04-28T16:06:44.866Z,5.10
2023-04-28T16:09:13.149Z,5.10
2023-04-28T16:11:42.148Z,5.20
2023-04-28T16:14:10.440Z,5.10
2023-04-28T16:16:39.494Z,5.90
2023-04-28T16:19:08.627Z,5.60
2023-04-28T16:21:36.915Z,32.10
2023-04-28T16:24:05.864Z,14.50
2023-04-28T16:26:34.824Z,4.10
2023-04-28T16:29:03.300Z,7.90
2023-04-28T16:31:32.662Z,7.40
2023-04-28T16:34:00.994Z,8.60
2023-04-28T16:36:35.858Z,6.60
2023-04-28T16:39:10.088Z,7.10
2023-04-28T16:41:43.577Z,9.10
2023-04-28T16:44:12.340Z,9.80
2023-04-28T16:46:41.563Z,5.70
2023-04-28T16:49:10.290Z,8.10
2023-04-28T16:51:39.937Z,6.80
2023-04-28T16:54:08.543Z,8.10
2023-04-28T16:56:39.159Z,7.50
2023-04-28T16:59:07.650Z,5.30
2023-04-28T17:01:36.455Z,9.60
2023-04-28T17:04:07.065Z,8.50
2023-04-28T17:06:35.678Z,11.00
2023-04-28T17:09:04.157Z,8.10
2023-04-28T17:11:32.542Z,11.40
2023-04-28T17:14:01.042Z,7.90
2023-04-28T17:16:33.215Z,8.60
2023-04-28T17:19:02.571Z,12.90
2023-04-28T17:21:31.628Z,7.90
2023-04-28T17:24:00.982Z,12.40
2023-04-28T17:26:30.964Z,13.30
2023-04-28T17:29:00.313Z,19.90
2023-04-28T17:31:29.667Z,16.60
2023-04-28T17:33:59.907Z,14.80
2023-04-28T17:36:28.881Z,15.10
2023-04-28T17:38:57.968Z,18.20
2023-04-28T17:41:26.366Z,25.20
2023-04-28T17:43:54.597Z,24.40
2023-04-28T17:46:23.155Z,18.70
2023-04-28T17:48:52.343Z,12.90
2023-04-28T17:51:21.232Z,10.80
2023-04-28T17:53:49.503Z,12.40
2023-04-28T17:56:17.792Z,10.40
2023-04-28T17:58:45.969Z,24.00
2023-04-28T18:01:14.146Z,14.20
2023-04-28T18:03:43.259Z,14.50
2023-04-28T18:06:16.560Z,10.10
2023-04-28T18:08:45.047Z,21.30
2023-04-28T18:11:13.516Z,13.70
2023-04-28T18:13:41.912Z,11.30
2023-04-28T18:16:14.962Z,13.20
2023-04-28T18:18:43.390Z,8.00
2023-04-28T18:21:11.764Z,14.80
2023-04-28T18:23:40.037Z,23.20
2023-04-28T18:26:09.053Z,20.80
2023-04-28T18:28:37.631Z,14.10
2023-04-28T18:31:06.601Z,16.70
2023-04-28T18:33:36.867Z,13.70
2023-04-28T18:36:07.528Z,14.10
2023-04-28T18:38:36.781Z,17.60
2023-04-28T18:41:16.799Z,18.50
2023-04-28T18:43:45.448Z,17.10
2023-04-28T18:46:14.996Z,19.20
2023-04-28T18:48:43.946Z,20.80
2023-04-28T18:51:12.755Z,22.10
2023-04-28T18:53:41.443Z,20.90
2023-04-28T18:56:09.715Z,34.20
2023-04-28T18:58:40.864Z,18.90
2023-04-28T19:01:17.218Z,28.00
2023-04-28T19:03:46.219Z,24.00
2023-04-28T19:06:18.564Z,29.30
2023-04-28T19:08:47.014Z,27.80
2023-04-28T19:11:15.580Z,18.40
2023-04-28T19:13:47.439Z,24.60
2023-04-28T19:16:19.036Z,14.50
2023-04-28T19:18:47.796Z,24.00
2023-04-28T19:21:17.862Z,17.30
2023-04-28T19:23:48.794Z,20.20
2023-04-28T19:26:17.279Z,14.90
2023-04-28T19:28:45.940Z,17.10
2023-04-28T19:31:14.919Z,19.20
2023-04-28T19:33:43.421Z,21.90
2023-04-28T19:36:11.804Z,25.00
2023-04-28T19:38:40.486Z,14.80
2023-04-28T19:41:09.193Z,18.90
2023-04-28T19:43:37.981Z,16.90
2023-04-28T19:46:09.396Z,18.40
2023-04-28T19:48:46.140Z,20.20
2023-04-28T19:51:19.771Z,14.40
2023-04-28T19:53:52.672Z,20.10
2023-04-28T19:56:21.596Z,21.50
2023-04-28T19:58:50.212Z,17.10
2023-04-28T20:01:19.009Z,23.90
2023-04-28T20:03:47.656Z,14.60
2023-04-28T20:06:17.616Z,27.90
2023-04-28T20:08:46.284Z,21.70
2023-04-28T20:11:14.589Z,18.70
2023-04-28T20:13:42.867Z,24.50
2023-04-28T20:16:11.709Z,22.20
2023-04-28T20:18:40.845Z,17.40
2023-04-28T20:21:10.057Z,19.40
2023-04-28T20:23:38.641Z,18.30
2023-04-28T20:26:12.960Z,20.00
2023-04-28T20:28:45.744Z,18.60
2023-04-28T20:31:15.465Z,18.90
2023-04-28T20:33:44.352Z,18.40
2023-04-28T20:36:13.150Z,20.60
2023-04-28T20:38:42.763Z,18.70
2023-04-28T20:41:11.364Z,20.70
2023-04-28T20:43:40.452Z,21.60
2023-04-28T20:46:16.957Z,18.00
2023-04-28T20:48:46.068Z,15.30
2023-04-28T20:51:14.719Z,14.50
2023-04-28T20:53:43.612Z,13.30
2023-04-28T20:56:12.278Z,16.90
2023-04-28T20:58:43.244Z,26.90
2023-04-28T21:01:11.752Z,25.60
2023-04-28T21:03:41.475Z,23.20
2023-04-28T21:06:10.450Z,18.10
2023-04-28T21:08:40.873Z,23.30
2023-04-28T21:11:14.032Z,17.70
2023-04-28T21:13:43.487Z,26.70
2023-04-28T21:16:21.645Z,23.40
2023-04-28T21:18:51.165Z,25.10
2023-04-28T21:21:19.696Z,20.50
2023-04-28T21:23:48.167Z,27.80
2023-04-28T21:26:16.447Z,18.40
2023-04-28T21:28:47.190Z,23.50
2023-04-28T21:31:15.686Z,23.70
2023-04-28T21:33:44.060Z,18.90
2023-04-28T21:36:12.733Z,19.80
2023-04-28T21:38:41.256Z,21.10
2023-04-28T21:41:12.585Z,28.60
2023-04-28T21:43:40.776Z,21.70
2023-04-28T21:46:09.813Z,21.00
2023-04-28T21:48:38.770Z,20.90
2023-04-28T21:51:07.567Z,22.80
2023-04-28T21:53:36.357Z,18.60
2023-04-28T21:56:05.784Z,18.50
2023-04-28T21:58:35.377Z,19.40
2023-04-28T22:01:05.479Z,24.60
2023-04-28T22:03:37.363Z,22.70
2023-04-28T22:06:06.366Z,20.00
2023-04-28T22:08:34.642Z,22.30
2023-04-28T22:11:03.229Z,26.60
2023-04-28T22:13:31.616Z,25.20
2023-04-28T22:16:02.051Z,27.10
2023-04-28T22:18:30.861Z,18.40
2023-04-28T22:21:01.273Z,17.70
2023-04-28T22:23:29.872Z,18.80
2023-04-28T22:25:59.532Z,22.20
2023-04-28T22:28:27.959Z,14.50
2023-04-28T22:30:56.503Z,18.30
2023-04-28T22:33:25.043Z,22.40
2023-04-28T22:35:53.738Z,14.20
2023-04-28T22:38:22.039Z,15.90
2023-04-28T22:40:50.296Z,13.80
2023-04-28T22:43:18.799Z,10.60
2023-04-28T22:45:47.471Z,15.70
2023-04-28T22:48:16.450Z,16.70
2023-04-28T22:50:46.461Z,11.70
2023-04-28T22:53:14.778Z,14.10
2023-04-28T22:55:43.676Z,16.00
2023-04-28T22:58:12.156Z,13.50
2023-04-28T23:00:40.439Z,12.50
2023-04-28T23:03:08.997Z,18.20
2023-04-28T23:05:39.132Z,10.60
2023-04-28T23:08:07.843Z,12.10
2023-04-28T23:10:36.071Z,13.30
2023-04-28T23:13:04.530Z,24.90
2023-04-28T23:15:32.997Z,17.50
2023-04-28T23:18:01.936Z,15.70
2023-04-28T23:20:32.942Z,9.90
2023-04-28T23:23:01.318Z,22.20
2023-04-28T23:25:29.952Z,11.20
2023-04-28T23:27:58.499Z,9.10
2023-04-28T23:30:27.090Z,14.50
2023-04-28T23:32:55.953Z,14.90
2023-04-28T23:35:24.168Z,18.10
2023-04-28T23:37:52.654Z,27.60
2023-04-28T23:40:21.651Z,15.70
2023-04-28T23:42:50.036Z,20.00
2023-04-28T23:45:18.521Z,15.50
2023-04-28T23:47:47.965Z,14.10
2023-04-28T23:50:16.910Z,12.60
2023-04-28T23:52:46.439Z,8.70
2023-04-28T23:55:14.731Z,14.70
2023-04-28T23:57:43.001Z,16.40
